Latest Weather Observations for Liawenee

IDT60801

Issued at 1:35 am EST Sunday 21 September 2014 (issued every 30 minutes, with the page automatically refreshed every 10 minutes)

About weather observations | Map of weather stations | Latest weather observations for TAS | Other Formats
Station Details ID: 096033 Name: LIAWENEE Lat: -41.90 Lon: 146.67 Height: 1057.0 m
Data from the previous 72 hours. | See also: Recent months at Liawenee
Date/Time
EST
Temp
°C
App
Temp
°C
Dew
Point
Rel
Hum
%
Delta-T
°C
Wind Press
QNH
hPa
Press
MSL
hPa
Rain
since 9 am
mm
Dir
 
Spd
km/h
Gust
km/h
Spd
kts
Gust
kts
21/01:30am 0.9 -4.4 -0.4 91 0.5 WSW 17 24 9 13 1025.3 1026.9 0.0
21/01:00am 2.0 -4.5 0.2 88 0.7 WSW 24 33 13 18 1025.6 1027.2 0.0
21/12:30am 2.0 -3.8 0.1 87 0.8 WSW 20 26 11 14 1025.7 1027.3 0.0
21/12:00am 2.6 -4.2 0.7 87 0.8 WSW 26 37 14 20 1026.2 1027.8 0.0
 
Date/Time
EST
Temp
°C
App
Temp
°C
Dew
Point
Rel
Hum
%
Delta-T
°C
Wind Press
QNH
hPa
Press
MSL
hPa
Rain
since 9 am
mm
Dir
 
Spd
km/h
Gust
km/h
Spd
kts
Gust
kts
20/11:30pm 2.4 -4.9 0.3 86 0.8 WSW 28 35 15 19 1025.7 1027.3 0.0
20/11:00pm 2.4 -3.7 0.1 85 0.9 WSW 22 32 12 17 1025.9 1027.5 0.0
20/10:30pm 2.7 -3.0 0.6 86 0.8 W 20 30 11 16 1026.0 1027.7 0.0
20/10:00pm 2.4 -2.7 0.5 87 0.8 WSW 17 24 9 13 1026.3 1027.9 0.0
20/09:30pm 2.3 -2.5 0.4 87 0.8 WSW 15 24 8 13 1026.2 1027.8 0.0
20/09:00pm 2.6 -3.8 0.8 88 0.7 WSW 24 35 13 19 1025.7 1027.3 0.0
20/08:30pm 2.6 -5.3 0.8 88 0.7 SW 32 43 17 23 1025.6 1027.2 0.0
20/08:25pm 2.6 -4.6 0.8 88 0.7 WSW 28 41 15 22 1025.5 1027.1 0.0
20/08:00pm 1.7 -3.5 0.4 91 0.5 WSW 17 22 9 12 1025.5 1027.1 0.0
20/07:30pm 1.2 -4.1 -0.3 90 0.6 SW 17 20 9 11 1025.3 1026.9 0.0
20/07:00pm 2.2 -3.0 0.4 88 0.7 SW 17 22 9 12 1024.8 1026.4 0.0
20/06:30pm 2.5 -3.1 0.2 85 0.9 WSW 19 24 10 13 1024.5 1026.1 0.0
20/06:00pm 3.7 -2.7 1.1 83 1.1 SW 24 32 13 17 1024.7 1026.3 0.0
20/05:30pm 4.4 -3.5 1.1 79 1.4 SW 32 39 17 21 1024.4 1026.0 0.0
20/05:00pm 5.5 -3.0 1.1 73 1.8 WSW 35 46 19 25 1024.1 1025.6 0.0
20/04:30pm 7.1 -1.3 1.8 69 2.3 SW 35 48 19 26 1023.6 1025.2 0.0
20/04:00pm 7.5 -0.3 2.6 71 2.2 WSW 33 44 18 24 1023.4 1024.9 0.0
20/03:30pm 6.8 -0.9 3.2 78 1.6 SSW 33 43 18 23 1023.1 1024.6 0.0
20/03:00pm 8.7 1.9 3.3 69 2.5 SSW 28 35 15 19 1023.4 1024.9 0.0
20/02:30pm 8.4 2.0 1.1 60 3.2 SSW 24 32 13 17 1023.2 1024.7 0.0
20/02:00pm 8.2 2.8 2.2 66 2.7 SW 20 24 11 13 1023.3 1024.8 0.0
20/01:30pm 7.9 1.6 1.5 64 2.8 SW 24 33 13 18 1023.3 1024.8 0.0
20/01:00pm 9.4 2.1 2.3 61 3.2 SW 30 41 16 22 1023.2 1024.7 0.0
20/12:30pm 9.8 2.9 2.4 60 3.4 WSW 28 35 15 19 1023.1 1024.6 0.0
20/12:00pm 9.2 2.3 2.8 64 2.9 SW 28 37 15 20 1023.1 1024.6 0.0
20/11:30am 8.9 1.3 3.1 67 2.6 WSW 32 41 17 22 1022.9 1024.5 0.0
20/11:00am 9.3 3.5 4.3 71 2.3 SW 24 33 13 18 1023.2 1024.7 0.0
20/10:30am 8.3 1.9 3.0 69 2.4 SW 26 35 14 19 1023.4 1024.9 0.0
20/10:00am 7.3 0.1 3.0 74 1.9 SW 30 41 16 22 1023.4 1024.9 0.0
20/09:30am 6.2 -1.0 3.2 81 1.3 SW 30 39 16 21 1023.2 1024.7 0.0
20/09:00am 5.9 -1.6 3.4 84 1.1 SW 32 41 17 22 1022.9 1024.5 0.4
20/08:30am 4.4 -2.9 2.4 87 0.9 SW 30 41 16 22 1022.6 1024.1 0.4
20/08:00am 4.0 -1.7 2.8 92 0.5 SW 22 30 12 16 1022.5 1024.0 0.4
20/07:30am 3.5 -0.9 2.5 93 0.4 SW 15 20 8 11 1022.4 1023.9 0.4
20/07:00am 3.0 -2.2 2.3 95 0.3 SW 19 24 10 13 1021.9 1023.5 0.4
20/06:30am 2.9 -2.5 2.5 97 0.2 WSW 20 28 11 15 1021.5 1023.0 0.4
20/06:00am 2.7 -2.2 2.3 97 0.2 SW 17 20 9 11 1021.3 1022.8 0.4
20/05:30am 2.7 -2.6 2.1 96 0.3 SSW 19 24 10 13 1020.9 1022.4 0.4
20/05:00am 2.8 -3.8 2.2 96 0.3 SW 26 35 14 19 1020.5 1022.0 0.4
20/04:30am 2.8 -3.0 2.4 97 0.2 SW 22 32 12 17 1020.1 1021.5 0.4
20/04:00am 2.8 -2.4 2.5 98 0.1 SSW 19 26 10 14 1020.0 1021.4 0.4
20/03:30am 2.9 -2.3 2.6 98 0.1 SSW 19 28 10 15 1019.8 1021.3 0.4
20/03:00am 2.9 -1.1 2.6 98 0.1 SSW 13 17 7 9 1019.8 1021.3 0.2
20/02:30am 3.0 -0.7 2.6 97 0.2 S 11 15 6 8 1019.8 1021.3 0.0
20/02:00am 3.0 -0.7 2.6 97 0.2 S 11 15 6 8 1020.0 1021.4 0.0
20/01:30am 3.2 -1.9 2.8 97 0.2 SSW 19 26 10 14 1019.7 1021.2 0.0
20/01:00am 3.2 -2.5 2.6 96 0.3 SSW 22 32 12 17 1019.4 1020.8 0.0
20/12:30am 3.3 -2.9 2.4 94 0.4 SW 24 33 13 18 1019.1 1020.5 0.0
20/12:00am 3.1 -3.8 2.5 96 0.3 SW 28 41 15 22 1018.7 1020.2 0.0
 
Date/Time
EST
Temp
°C
App
Temp
°C
Dew
Point
Rel
Hum
%
Delta-T
°C
Wind Press
QNH
hPa
Press
MSL
hPa
Rain
since 9 am
mm
Dir
 
Spd
km/h
Gust
km/h
Spd
kts
Gust
kts
19/11:30pm 3.3 -3.2 2.4 94 0.4 SW 26 37 14 20 1019.0 1020.4 0.0
19/11:00pm 3.4 -3.5 2.4 93 0.4 SW 28 41 15 22 1019.1 1020.5 0.0
19/10:30pm 3.4 -3.6 2.2 92 0.5 SSW 28 39 15 21 1018.8 1020.3 0.0
19/10:00pm 3.2 -3.7 2.3 94 0.4 SW 28 35 15 19 1018.8 1020.3 0.0
19/09:30pm 3.3 -3.2 2.4 94 0.4 SW 26 37 14 20 1018.8 1020.3 0.0
19/09:00pm 3.2 -2.3 1.9 91 0.5 SW 20 28 11 15 1018.7 1020.2 0.0
19/08:30pm 3.3 -3.7 2.1 92 0.5 SW 28 37 15 20 1018.6 1020.0 0.0
19/08:00pm 3.2 -2.3 2.0 92 0.5 WSW 20 30 11 16 1018.6 1020.0 0.0
19/07:30pm 3.7 -2.6 1.4 85 1.0 WSW 24 32 13 17 1018.5 1019.9 0.0
19/07:00pm 3.3 -3.9 1.0 85 0.9 WSW 28 39 15 21 1018.2 1019.6 0.0
19/06:30pm 3.2 -4.9 1.3 87 0.8 WSW 33 50 18 27 1017.5 1018.9 0.0
19/06:28pm 3.4 -4.5 1.3 86 0.9 WSW 32 50 17 27 1017.5 1018.9 0.0
19/06:00pm 4.1 -3.9 1.8 85 1.0 WSW 33 46 18 25 1017.5 1018.9 0.0
19/05:30pm 3.9 -4.9 1.3 83 1.1 WSW 37 48 20 26 1017.3 1018.7 0.0
19/05:09pm 4.0 -5.6 0.9 80 1.3 SW 41 63 22 34 1017.0 1018.3 0.0
19/05:00pm 4.0 -4.5 0.7 79 1.4 SW 35 52 19 28 1016.8 1018.2 0.0
19/04:30pm 4.2 -5.4 0.9 79 1.4 WSW 41 52 22 28 1016.6 1018.0 0.0
19/04:00pm 5.7 -3.9 1.1 72 1.9 WSW 41 57 22 31 1016.4 1017.8 0.0
19/03:30pm 5.9 -4.5 2.0 76 1.7 WSW 46 69 25 37 1016.2 1017.5 0.0
19/03:16pm 6.4 -4.4 1.9 73 2.0 WSW 48 67 26 36 1015.9 1017.2 0.0
19/03:00pm 7.2 -2.8 2.1 70 2.2 WSW 44 59 24 32 1015.7 1017.1 0.0
19/02:30pm 6.9 -1.4 2.0 71 2.1 SW 35 48 19 26 1015.5 1016.9 0.0
19/02:00pm 7.5 -1.6 1.8 67 2.5 SW 39 52 21 28 1015.6 1017.0 0.0
19/01:30pm 6.8 -3.3 1.5 69 2.3 SW 44 65 24 35 1015.7 1017.1 0.0
19/01:16pm 6.3 -2.8 2.0 74 1.9 SW 39 59 21 32 1016.0 1017.3 0.0
19/01:00pm 6.0 -2.8 3.8 86 1.0 WSW 39 50 21 27 1016.1 1017.4 0.0
19/12:30pm 7.2 -2.4 1.1 65 2.6 SW 41 54 22 29 1016.1 1017.4 0.0
19/12:06pm 6.8 -3.4 0.9 66 2.5 SW 44 63 24 34 1016.0 1017.3 0.0
19/12:00pm 6.8 -3.7 1.3 68 2.4 SW 46 61 25 33 1015.9 1017.2 0.0
19/11:30am 7.2 -2.6 3.1 75 1.8 SW 44 65 24 35 1015.9 1017.2 0.0
19/11:10am 6.6 -3.3 1.9 72 2.0 SW 43 61 23 33 1016.0 1017.3 0.0
19/11:00am 6.7 -3.2 1.4 69 2.3 SW 43 59 23 32 1016.2 1017.5 0.0
19/10:53am 6.2 -2.5 2.1 75 1.8 SW 37 57 20 31 1016.2 1017.5 0.0
19/10:30am 5.8 -2.5 2.1 77 1.6 SW 35 48 19 26 1016.2 1017.5 0.0
19/10:00am 5.7 -4.5 1.2 73 1.9 SW 44 63 24 34 1016.0 1017.3 0.0
19/09:30am 4.5 -5.5 0.8 77 1.5 WSW 43 61 23 33 1015.6 1017.0 0.0
19/09:02am 4.1 -5.9 1.1 81 1.2 WSW 43 65 23 35 1015.6 1017.0 0.0
19/09:00am 4.0 -5.9 1.5 84 1.0 WSW 43 57 23 31 1015.6 1017.0 0.8
19/08:49am 3.5 -5.5 2.3 92 0.5 WSW 39 57 21 31 1015.6 1017.0 0.8
19/08:30am 3.5 -4.7 2.5 93 0.4 WSW 35 46 19 25 1015.3 1016.6 0.8
19/08:00am 3.5 -5.2 2.3 92 0.5 SW 37 54 20 29 1015.0 1016.3 0.8
19/07:31am 2.6 -5.4 1.7 94 0.4 SW 33 52 18 28 1014.7 1016.1 0.8
19/07:30am 2.6 -5.8 1.7 94 0.4 SW 35 52 19 28 1014.7 1016.1 0.8
19/07:14am 2.1 -6.0 1.1 93 0.4 SW 33 52 18 28 1014.6 1016.0 0.8
19/07:00am 2.5 -7.0 1.6 94 0.4 SW 41 56 22 30 1014.2 1015.5 0.8
19/06:30am 2.8 -6.6 2.1 95 0.3 SW 41 61 22 33 1013.7 1015.0 0.8
19/06:03am 2.5 -7.5 1.9 96 0.3 SW 44 65 24 35 1013.3 1014.6 0.8
19/06:00am 2.5 -7.5 1.9 96 0.3 WSW 44 61 24 33 1013.2 1014.5 0.8
19/05:59am 2.4 -7.5 1.8 96 0.2 WSW 43 61 23 33 1013.2 1014.5 0.8
19/05:30am 2.1 -6.3 1.4 95 0.3 WSW 35 46 19 25 1013.5 1014.8 0.8
19/05:00am 2.2 -6.2 1.3 94 0.4 SW 35 46 19 25 1013.3 1014.6 0.8
19/04:30am 2.1 -7.9 1.1 93 0.4 WSW 43 65 23 35 1013.4 1014.7 0.8
19/04:00am 2.2 -7.0 1.3 94 0.4 WSW 39 59 21 32 1013.1 1014.4 0.8
19/03:39am 2.5 -6.6 1.8 95 0.3 WSW 39 57 21 31 1013.2 1014.5 0.8
19/03:30am 2.4 -5.4 1.8 96 0.2 WSW 32 44 17 24 1013.2 1014.5 0.8
19/03:00am 2.5 -5.8 1.9 96 0.3 WSW 35 48 19 26 1013.1 1014.4 0.8
19/02:30am 2.1 -5.9 1.8 98 0.1 WSW 33 44 18 24 1013.1 1014.4 0.8
19/02:00am 1.8 -6.0 1.4 97 0.2 WSW 32 44 17 24 1013.3 1014.6 0.8
19/01:30am 1.8 -4.9 1.2 96 0.2 W 26 37 14 20 1013.5 1014.8 0.8
19/01:00am 1.8 -4.6 0.9 94 0.4 W 24 33 13 18 1013.9 1015.2 0.8
19/12:31am 1.7 -5.5 0.8 94 0.4 WSW 28 46 15 25 1014.2 1015.5 0.8
19/12:30am 1.7 -5.1 0.8 94 0.4 WSW 26 46 14 25 1014.3 1015.6 0.8
19/12:00am 1.4 -4.3 0.5 94 0.4 W 20 33 11 18 1014.1 1015.4 0.8
 
Date/Time
EST
Temp
°C
App
Temp
°C
Dew
Point
Rel
Hum
%
Delta-T
°C
Wind Press
QNH
hPa
Press
MSL
hPa
Rain
since 9 am
mm
Dir
 
Spd
km/h
Gust
km/h
Spd
kts
Gust
kts
18/11:30pm 1.1 -5.4 0.4 95 0.3 WSW 24 32 13 17 1014.4 1015.7 0.8
18/11:00pm 0.9 -6.4 0.3 96 0.2 WSW 28 39 15 21 1014.4 1015.7 0.8
18/10:30pm 0.6 -7.5 -0.3 94 0.3 WSW 32 46 17 25 1014.7 1016.1 0.8
18/10:00pm 1.1 -7.5 0.5 96 0.2 SW 35 54 19 29 1014.7 1016.1 0.8
18/09:58pm 1.1 -7.5 0.5 96 0.2 SW 35 54 19 29 1014.7 1016.1 0.8
18/09:30pm 1.2 -7.4 0.5 95 0.3 SW 35 50 19 27 1014.7 1016.1 0.8
18/09:00pm 1.1 -7.5 0.5 96 0.2 SW 35 44 19 24 1015.1 1016.4 0.8
18/08:42pm 1.0 -6.6 0.7 98 0.1 SW 30 48 16 26 1015.1 1016.4 0.8
18/08:30pm 1.0 -6.6 0.7 98 0.1 WSW 30 39 16 21 1015.1 1016.4 0.8
18/08:00pm 0.6 -7.4 0.3 98 0.1 SW 32 44 17 24 1015.0 1016.3 0.6
18/07:30pm 0.4 -7.9 0.0 97 0.2 WSW 33 44 18 24 1014.7 1016.1 0.6
18/07:00pm 0.4 -8.6 0.0 97 0.2 SW 37 48 20 26 1014.6 1016.0 0.4
18/06:53pm 0.5 -7.6 -0.1 96 0.2 SW 32 46 17 25 1014.7 1016.1 0.4
18/06:30pm 0.9 -4.9 0.2 95 0.3 SW 20 28 11 15 1014.6 1016.0 0.2
18/06:00pm 1.1 -6.2 -0.1 92 0.5 SW 28 39 15 21 1014.9 1016.2 0.2
18/05:30pm 1.2 -6.6 -0.6 88 0.7 SW 30 41 16 22 1014.7 1016.1 0.2
18/05:00pm 1.6 -6.6 0.3 91 0.5 SW 33 56 18 30 1014.3 1015.6 0.2
18/04:59pm 1.7 -6.5 0.2 90 0.6 SW 33 56 18 30 1014.3 1015.6 0.2
18/04:30pm 2.8 -5.7 1.0 88 0.7 SW 35 50 19 27 1014.0 1015.3 0.2
18/04:00pm 3.9 -4.2 0.8 80 1.3 SW 33 46 18 25 1013.9 1015.2 0.2
18/03:30pm 4.3 -4.3 0.1 74 1.7 SW 35 54 19 29 1013.7 1015.0 0.2
18/03:25pm 4.2 -4.1 -0.2 73 1.8 SW 33 52 18 28 1013.7 1015.0 0.0
18/03:00pm 4.7 -5.4 0.3 73 1.8 WSW 43 54 23 29 1013.5 1014.8 0.0
18/02:47pm 4.0 -5.9 -0.6 72 1.8 SW 41 59 22 32 1013.3 1014.6 0.0
18/02:30pm 4.6 -4.8 -0.2 71 1.9 WSW 39 54 21 29 1013.6 1014.9 0.0
18/02:00pm 4.5 -4.5 0.3 74 1.7 SW 37 52 20 28 1013.9 1015.2 0.0
18/01:30pm 4.8 -3.9 -0.2 70 2.0 WSW 35 48 19 26 1014.0 1015.3 0.0
18/01:00pm 5.0 -3.9 0.9 75 1.7 SW 37 50 20 27 1014.0 1015.3 0.0
18/12:30pm 5.3 -3.5 1.1 74 1.8 WSW 37 50 20 27 1013.9 1015.2 0.0
18/12:00pm 4.2 -4.6 1.1 80 1.3 WSW 37 48 20 26 1014.1 1015.4 0.0
18/11:30am 3.1 -4.5 0.7 84 1.0 SW 30 46 16 25 1014.3 1015.6 0.0
18/11:00am 2.4 -5.7 -0.5 81 1.1 SW 32 43 17 23 1014.5 1015.8 0.0
18/10:30am 1.9 -6.8 -0.7 83 1.0 SW 35 48 19 26 1014.4 1015.7 0.0
18/10:01am 1.7 -5.7 -0.5 85 0.9 SW 28 46 15 25 1014.4 1015.7 0.0
18/10:00am 1.7 -5.7 -0.4 86 0.8 SW 28 37 15 20 1014.4 1015.7 0.0
18/09:30am 0.9 -7.5 -0.9 88 0.7 SW 33 48 18 26 1014.5 1015.8 0.0
18/09:00am 0.8 -5.9 -0.8 89 0.6 SW 24 37 13 20 1014.4 1015.7 3.2
18/08:30am 0.6 -7.8 -1.2 88 0.7 SW 33 46 18 25 1014.1 1015.4 3.2
18/08:00am 0.2 -8.0 -0.9 92 0.4 SW 32 39 17 21 1013.7 1015.0 2.8
18/07:30am -0.5 -7.9 -0.9 97 0.1 SW 28 43 15 23 1013.3 1014.6 2.8
18/07:00am -0.8 -8.3 -1.4 96 0.2 SW 28 35 15 19 1012.7 1014.0 2.8
18/06:30am -0.7 -7.8 -1.1 97 0.1 SW 26 33 14 18 1012.4 1013.7 2.8
18/06:00am -0.6 -7.3 -1.0 97 0.1 SW 24 33 13 18 1012.1 1013.3 2.8
18/05:30am -0.9 -6.7 -1.3 97 0.1 SW 19 26 10 14 1011.6 1012.9 2.8
18/05:00am -1.1 -7.5 -1.7 96 0.2 SW 22 32 12 17 1011.1 1012.3 2.8
18/04:30am -1.2 -8.4 -1.8 96 0.2 SW 26 41 14 22 1011.1 1012.3 2.8
18/04:09am -1.1 -9.5 -1.4 98 0.1 SW 33 56 18 30 1010.8 1012.0 2.8
18/04:00am -1.1 -9.4 -1.4 98 0.1 SW 32 43 17 23 1010.5 1011.8 2.8
18/03:30am -1.0 -9.2 -1.3 98 0.1 SW 32 41 17 22 1010.3 1011.5 2.8
18/03:03am -0.8 -9.0 -1.1 98 0.1 SW 32 50 17 27 1009.9 1011.1 2.8
18/03:00am -0.8 -8.6 -1.1 98 0.1 SW 30 39 16 21 1009.9 1011.1 2.8
18/02:30am -0.7 -8.5 -1.0 98 0.1 SW 30 37 16 20 1009.8 1011.0 2.6
18/02:00am -0.9 -6.8 -1.0 99 0.0 SW 20 30 11 16 1009.9 1011.1 2.4

Other Formats:

Comma delimited format used in spreadsheet applications
http://www.bom.gov.au/fwo/IDT60801/IDT60801.95959.axf

JavaScript Object Notation format (JSON) in row-major order
http://www.bom.gov.au/fwo/IDT60801/IDT60801.95959.json